sensor_id;sensor_type;location;lat;lon;timestamp;P1;durP1;ratioP1;P2;durP2;ratioP2
2972;SDS011;1496;51.404;7.232;2023-12-07T00:01:46;40.10;;;22.07;;
2972;SDS011;1496;51.404;7.232;2023-12-07T00:04:12;40.10;;;21.80;;
2972;SDS011;1496;51.404;7.232;2023-12-07T00:06:37;37.83;;;21.93;;
2972;SDS011;1496;51.404;7.232;2023-12-07T00:09:03;39.53;;;21.37;;
2972;SDS011;1496;51.404;7.232;2023-12-07T00:11:29;52.83;;;23.77;;
2972;SDS011;1496;51.404;7.232;2023-12-07T00:13:55;52.67;;;21.97;;
2972;SDS011;1496;51.404;7.232;2023-12-07T00:16:20;44.93;;;23.90;;
2972;SDS011;1496;51.404;7.232;2023-12-07T00:18:46;43.63;;;21.33;;
2972;SDS011;1496;51.404;7.232;2023-12-07T00:21:12;49.70;;;25.00;;
2972;SDS011;1496;51.404;7.232;2023-12-07T00:23:38;37.63;;;21.30;;
2972;SDS011;1496;51.404;7.232;2023-12-07T00:26:04;48.17;;;22.13;;
2972;SDS011;1496;51.404;7.232;2023-12-07T00:28:29;42.83;;;22.17;;
2972;SDS011;1496;51.404;7.232;2023-12-07T00:30:55;45.00;;;22.40;;
2972;SDS011;1496;51.404;7.232;2023-12-07T00:33:21;47.73;;;23.90;;
2972;SDS011;1496;51.404;7.232;2023-12-07T00:35:47;46.03;;;21.67;;
2972;SDS011;1496;51.404;7.232;2023-12-07T00:38:13;48.23;;;24.70;;
2972;SDS011;1496;51.404;7.232;2023-12-07T00:40:38;43.77;;;22.47;;
2972;SDS011;1496;51.404;7.232;2023-12-07T00:43:05;48.97;;;22.10;;
2972;SDS011;1496;51.404;7.232;2023-12-07T00:45:32;49.70;;;22.40;;
2972;SDS011;1496;51.404;7.232;2023-12-07T00:47:58;50.07;;;23.77;;
2972;SDS011;1496;51.404;7.232;2023-12-07T00:50:23;49.40;;;23.57;;
2972;SDS011;1496;51.404;7.232;2023-12-07T00:52:49;43.33;;;22.87;;
2972;SDS011;1496;51.404;7.232;2023-12-07T00:55:14;50.67;;;22.03;;
2972;SDS011;1496;51.404;7.232;2023-12-07T00:57:40;49.47;;;23.80;;
2972;SDS011;1496;51.404;7.232;2023-12-07T01:00:06;46.07;;;25.30;;
2972;SDS011;1496;51.404;7.232;2023-12-07T01:02:33;45.60;;;23.70;;
2972;SDS011;1496;51.404;7.232;2023-12-07T01:04:59;46.60;;;24.60;;
2972;SDS011;1496;51.404;7.232;2023-12-07T01:07:25;57.50;;;23.03;;
2972;SDS011;1496;51.404;7.232;2023-12-07T01:09:50;55.43;;;25.40;;
2972;SDS011;1496;51.404;7.232;2023-12-07T01:12:16;53.40;;;24.27;;
2972;SDS011;1496;51.404;7.232;2023-12-07T01:14:41;54.13;;;22.83;;
2972;SDS011;1496;51.404;7.232;2023-12-07T01:17:07;47.63;;;22.67;;
2972;SDS011;1496;51.404;7.232;2023-12-07T01:19:33;53.07;;;22.80;;
2972;SDS011;1496;51.404;7.232;2023-12-07T01:21:59;49.07;;;23.57;;
2972;SDS011;1496;51.404;7.232;2023-12-07T01:24:25;55.83;;;24.80;;
2972;SDS011;1496;51.404;7.232;2023-12-07T01:26:50;55.33;;;23.00;;
2972;SDS011;1496;51.404;7.232;2023-12-07T01:29:16;57.53;;;24.23;;
2972;SDS011;1496;51.404;7.232;2023-12-07T01:31:43;56.23;;;25.10;;
2972;SDS011;1496;51.404;7.232;2023-12-07T01:34:08;46.80;;;23.73;;
2972;SDS011;1496;51.404;7.232;2023-12-07T01:36:34;48.60;;;22.77;;
2972;SDS011;1496;51.404;7.232;2023-12-07T01:39:00;44.47;;;22.57;;
2972;SDS011;1496;51.404;7.232;2023-12-07T01:41:25;40.63;;;21.90;;
2972;SDS011;1496;51.404;7.232;2023-12-07T01:43:51;44.57;;;21.57;;
2972;SDS011;1496;51.404;7.232;2023-12-07T01:46:17;50.00;;;24.30;;
2972;SDS011;1496;51.404;7.232;2023-12-07T01:48:43;46.37;;;24.63;;
2972;SDS011;1496;51.404;7.232;2023-12-07T01:51:13;44.40;;;22.27;;
2972;SDS011;1496;51.404;7.232;2023-12-07T01:53:40;45.00;;;23.50;;
2972;SDS011;1496;51.404;7.232;2023-12-07T01:56:06;45.10;;;21.57;;
2972;SDS011;1496;51.404;7.232;2023-12-07T01:58:33;44.97;;;22.00;;
2972;SDS011;1496;51.404;7.232;2023-12-07T02:01:00;45.17;;;22.77;;
2972;SDS011;1496;51.404;7.232;2023-12-07T02:03:27;47.70;;;23.30;;
2972;SDS011;1496;51.404;7.232;2023-12-07T02:05:55;43.17;;;22.60;;
2972;SDS011;1496;51.404;7.232;2023-12-07T02:08:22;46.03;;;22.43;;
2972;SDS011;1496;51.404;7.232;2023-12-07T02:10:48;46.43;;;20.67;;
2972;SDS011;1496;51.404;7.232;2023-12-07T02:13:13;42.70;;;21.23;;
2972;SDS011;1496;51.404;7.232;2023-12-07T02:15:39;44.77;;;22.53;;
2972;SDS011;1496;51.404;7.232;2023-12-07T02:20:44;44.37;;;21.23;;
2972;SDS011;1496;51.404;7.232;2023-12-07T02:23:17;47.27;;;21.00;;
2972;SDS011;1496;51.404;7.232;2023-12-07T02:28:59;36.60;;;17.97;;
2972;SDS011;1496;51.404;7.232;2023-12-07T02:31:24;43.13;;;20.50;;
2972;SDS011;1496;51.404;7.232;2023-12-07T02:33:50;38.60;;;19.30;;
2972;SDS011;1496;51.404;7.232;2023-12-07T02:36:16;40.80;;;21.37;;
2972;SDS011;1496;51.404;7.232;2023-12-07T02:38:46;41.67;;;19.57;;
2972;SDS011;1496;51.404;7.232;2023-12-07T02:41:14;37.27;;;20.23;;
2972;SDS011;1496;51.404;7.232;2023-12-07T02:43:41;39.27;;;19.60;;
2972;SDS011;1496;51.404;7.232;2023-12-07T02:46:07;41.37;;;19.23;;
2972;SDS011;1496;51.404;7.232;2023-12-07T02:48:33;32.37;;;18.33;;
2972;SDS011;1496;51.404;7.232;2023-12-07T02:50:58;38.87;;;17.97;;
2972;SDS011;1496;51.404;7.232;2023-12-07T02:53:24;36.43;;;17.93;;
2972;SDS011;1496;51.404;7.232;2023-12-07T02:55:51;36.47;;;17.20;;
2972;SDS011;1496;51.404;7.232;2023-12-07T02:58:16;33.80;;;17.47;;
2972;SDS011;1496;51.404;7.232;2023-12-07T03:00:42;33.07;;;18.77;;
2972;SDS011;1496;51.404;7.232;2023-12-07T03:03:08;39.20;;;18.90;;
2972;SDS011;1496;51.404;7.232;2023-12-07T03:05:33;38.37;;;15.87;;
2972;SDS011;1496;51.404;7.232;2023-12-07T03:07:59;32.40;;;16.53;;
2972;SDS011;1496;51.404;7.232;2023-12-07T03:10:25;37.60;;;17.83;;
2972;SDS011;1496;51.404;7.232;2023-12-07T03:12:50;38.60;;;19.17;;
2972;SDS011;1496;51.404;7.232;2023-12-07T03:15:16;34.73;;;18.10;;
2972;SDS011;1496;51.404;7.232;2023-12-07T03:17:41;40.50;;;17.30;;
2972;SDS011;1496;51.404;7.232;2023-12-07T03:20:08;37.40;;;15.80;;
2972;SDS011;1496;51.404;7.232;2023-12-07T03:22:35;37.40;;;18.10;;
2972;SDS011;1496;51.404;7.232;2023-12-07T03:25:01;34.33;;;17.37;;
2972;SDS011;1496;51.404;7.232;2023-12-07T03:27:27;39.03;;;17.50;;
2972;SDS011;1496;51.404;7.232;2023-12-07T03:29:54;35.70;;;15.90;;
2972;SDS011;1496;51.404;7.232;2023-12-07T03:32:19;36.97;;;16.53;;
2972;SDS011;1496;51.404;7.232;2023-12-07T03:34:45;34.13;;;17.03;;
2972;SDS011;1496;51.404;7.232;2023-12-07T03:37:10;37.90;;;17.60;;
2972;SDS011;1496;51.404;7.232;2023-12-07T03:39:36;36.40;;;16.70;;
2972;SDS011;1496;51.404;7.232;2023-12-07T03:42:02;36.10;;;17.97;;
2972;SDS011;1496;51.404;7.232;2023-12-07T03:44:28;43.20;;;19.13;;
2972;SDS011;1496;51.404;7.232;2023-12-07T03:46:54;43.03;;;18.67;;
2972;SDS011;1496;51.404;7.232;2023-12-07T03:49:20;37.57;;;17.80;;
2972;SDS011;1496;51.404;7.232;2023-12-07T03:51:45;45.20;;;19.23;;
2972;SDS011;1496;51.404;7.232;2023-12-07T03:54:11;42.23;;;17.60;;
2972;SDS011;1496;51.404;7.232;2023-12-07T03:56:37;43.33;;;17.60;;
2972;SDS011;1496;51.404;7.232;2023-12-07T03:59:02;37.47;;;17.93;;
2972;SDS011;1496;51.404;7.232;2023-12-07T04:01:28;31.63;;;16.20;;
2972;SDS011;1496;51.404;7.232;2023-12-07T04:03:55;35.20;;;18.57;;
2972;SDS011;1496;51.404;7.232;2023-12-07T04:06:22;35.77;;;17.53;;
2972;SDS011;1496;51.404;7.232;2023-12-07T04:08:48;42.87;;;17.27;;
2972;SDS011;1496;51.404;7.232;2023-12-07T04:11:14;31.97;;;17.43;;
2972;SDS011;1496;51.404;7.232;2023-12-07T04:13:40;32.30;;;16.70;;
2972;SDS011;1496;51.404;7.232;2023-12-07T04:16:06;36.20;;;15.27;;
2972;SDS011;1496;51.404;7.232;2023-12-07T04:18:33;37.20;;;17.60;;
2972;SDS011;1496;51.404;7.232;2023-12-07T04:20:58;39.30;;;17.87;;
2972;SDS011;1496;51.404;7.232;2023-12-07T04:23:24;32.70;;;16.67;;
2972;SDS011;1496;51.404;7.232;2023-12-07T04:25:50;44.00;;;16.57;;
2972;SDS011;1496;51.404;7.232;2023-12-07T04:28:16;30.67;;;16.90;;
2972;SDS011;1496;51.404;7.232;2023-12-07T04:30:41;32.60;;;16.20;;
2972;SDS011;1496;51.404;7.232;2023-12-07T04:33:07;34.63;;;13.93;;
2972;SDS011;1496;51.404;7.232;2023-12-07T04:35:32;28.67;;;15.93;;
2972;SDS011;1496;51.404;7.232;2023-12-07T04:37:59;35.93;;;15.73;;
2972;SDS011;1496;51.404;7.232;2023-12-07T04:40:24;33.17;;;16.43;;
2972;SDS011;1496;51.404;7.232;2023-12-07T04:42:50;35.90;;;16.63;;
2972;SDS011;1496;51.404;7.232;2023-12-07T04:45:16;36.40;;;17.73;;
2972;SDS011;1496;51.404;7.232;2023-12-07T04:47:42;33.53;;;17.23;;
2972;SDS011;1496;51.404;7.232;2023-12-07T04:50:08;28.20;;;14.07;;
2972;SDS011;1496;51.404;7.232;2023-12-07T04:52:36;30.27;;;15.70;;
2972;SDS011;1496;51.404;7.232;2023-12-07T04:55:03;33.67;;;14.90;;
2972;SDS011;1496;51.404;7.232;2023-12-07T05:00:44;34.30;;;15.20;;
2972;SDS011;1496;51.404;7.232;2023-12-07T05:03:10;29.83;;;16.43;;
2972;SDS011;1496;51.404;7.232;2023-12-07T05:05:35;27.13;;;14.57;;
2972;SDS011;1496;51.404;7.232;2023-12-07T05:08:01;31.63;;;15.40;;
2972;SDS011;1496;51.404;7.232;2023-12-07T05:10:27;25.27;;;13.90;;
2972;SDS011;1496;51.404;7.232;2023-12-07T05:12:52;31.60;;;14.83;;
2972;SDS011;1496;51.404;7.232;2023-12-07T05:15:18;32.47;;;14.53;;
2972;SDS011;1496;51.404;7.232;2023-12-07T05:17:43;30.47;;;14.20;;
2972;SDS011;1496;51.404;7.232;2023-12-07T05:20:09;34.30;;;14.90;;
2972;SDS011;1496;51.404;7.232;2023-12-07T05:22:37;25.70;;;13.37;;
2972;SDS011;1496;51.404;7.232;2023-12-07T05:25:03;27.73;;;13.37;;
2972;SDS011;1496;51.404;7.232;2023-12-07T05:27:30;26.37;;;13.40;;
2972;SDS011;1496;51.404;7.232;2023-12-07T05:29:55;29.63;;;14.90;;
2972;SDS011;1496;51.404;7.232;2023-12-07T05:32:21;26.90;;;13.20;;
2972;SDS011;1496;51.404;7.232;2023-12-07T05:34:47;29.20;;;14.77;;
2972;SDS011;1496;51.404;7.232;2023-12-07T05:37:12;23.10;;;12.87;;
2972;SDS011;1496;51.404;7.232;2023-12-07T05:39:38;31.70;;;15.43;;
2972;SDS011;1496;51.404;7.232;2023-12-07T05:42:04;25.13;;;13.97;;
2972;SDS011;1496;51.404;7.232;2023-12-07T05:44:30;27.10;;;12.53;;
2972;SDS011;1496;51.404;7.232;2023-12-07T05:46:56;26.13;;;13.53;;
2972;SDS011;1496;51.404;7.232;2023-12-07T05:49:23;34.67;;;14.50;;
2972;SDS011;1496;51.404;7.232;2023-12-07T05:51:49;24.93;;;15.37;;
2972;SDS011;1496;51.404;7.232;2023-12-07T05:54:14;28.83;;;15.20;;
2972;SDS011;1496;51.404;7.232;2023-12-07T05:56:40;22.40;;;13.03;;
2972;SDS011;1496;51.404;7.232;2023-12-07T05:59:06;33.93;;;14.57;;
2972;SDS011;1496;51.404;7.232;2023-12-07T06:01:32;27.80;;;13.67;;
2972;SDS011;1496;51.404;7.232;2023-12-07T06:03:58;30.40;;;14.87;;
2972;SDS011;1496;51.404;7.232;2023-12-07T06:06:23;25.50;;;14.67;;
2972;SDS011;1496;51.404;7.232;2023-12-07T06:08:49;32.70;;;15.20;;
2972;SDS011;1496;51.404;7.232;2023-12-07T06:11:15;30.50;;;17.23;;
2972;SDS011;1496;51.404;7.232;2023-12-07T06:13:40;31.20;;;16.73;;
2972;SDS011;1496;51.404;7.232;2023-12-07T06:16:06;27.00;;;14.23;;
2972;SDS011;1496;51.404;7.232;2023-12-07T06:18:32;31.60;;;15.13;;
2972;SDS011;1496;51.404;7.232;2023-12-07T06:20:58;30.37;;;15.20;;
2972;SDS011;1496;51.404;7.232;2023-12-07T06:23:24;26.90;;;14.33;;
2972;SDS011;1496;51.404;7.232;2023-12-07T06:25:50;26.13;;;14.63;;
2972;SDS011;1496;51.404;7.232;2023-12-07T06:28:16;31.17;;;14.50;;
2972;SDS011;1496;51.404;7.232;2023-12-07T06:30:41;30.63;;;14.60;;
2972;SDS011;1496;51.404;7.232;2023-12-07T06:33:07;31.27;;;14.77;;
2972;SDS011;1496;51.404;7.232;2023-12-07T06:35:34;28.77;;;14.90;;
2972;SDS011;1496;51.404;7.232;2023-12-07T06:38:00;25.97;;;14.70;;
2972;SDS011;1496;51.404;7.232;2023-12-07T06:40:25;34.00;;;15.93;;
2972;SDS011;1496;51.404;7.232;2023-12-07T06:42:51;25.47;;;13.80;;
2972;SDS011;1496;51.404;7.232;2023-12-07T06:45:17;31.37;;;16.70;;
2972;SDS011;1496;51.404;7.232;2023-12-07T06:47:42;37.37;;;17.00;;
2972;SDS011;1496;51.404;7.232;2023-12-07T06:50:08;34.60;;;17.13;;
2972;SDS011;1496;51.404;7.232;2023-12-07T06:52:38;25.60;;;15.27;;
2972;SDS011;1496;51.404;7.232;2023-12-07T06:55:05;28.77;;;15.80;;
2972;SDS011;1496;51.404;7.232;2023-12-07T06:57:31;30.50;;;15.33;;
2972;SDS011;1496;51.404;7.232;2023-12-07T06:59:57;32.73;;;15.30;;
2972;SDS011;1496;51.404;7.232;2023-12-07T07:02:23;26.37;;;14.10;;
2972;SDS011;1496;51.404;7.232;2023-12-07T07:04:49;26.00;;;14.93;;
2972;SDS011;1496;51.404;7.232;2023-12-07T07:07:15;29.60;;;16.33;;
2972;SDS011;1496;51.404;7.232;2023-12-07T07:09:41;28.30;;;14.43;;
2972;SDS011;1496;51.404;7.232;2023-12-07T07:12:07;31.80;;;15.47;;
2972;SDS011;1496;51.404;7.232;2023-12-07T07:14:32;31.47;;;15.57;;
2972;SDS011;1496;51.404;7.232;2023-12-07T07:16:59;32.57;;;16.50;;
2972;SDS011;1496;51.404;7.232;2023-12-07T07:19:25;36.70;;;16.60;;
2972;SDS011;1496;51.404;7.232;2023-12-07T07:21:51;34.10;;;17.97;;
2972;SDS011;1496;51.404;7.232;2023-12-07T07:24:16;30.70;;;16.27;;
2972;SDS011;1496;51.404;7.232;2023-12-07T07:26:42;34.57;;;17.50;;
2972;SDS011;1496;51.404;7.232;2023-12-07T07:29:07;28.07;;;18.77;;
2972;SDS011;1496;51.404;7.232;2023-12-07T07:31:33;45.87;;;17.43;;
2972;SDS011;1496;51.404;7.232;2023-12-07T07:34:00;41.43;;;15.60;;
2972;SDS011;1496;51.404;7.232;2023-12-07T07:36:26;35.40;;;16.83;;
2972;SDS011;1496;51.404;7.232;2023-12-07T07:38:52;33.00;;;16.13;;
2972;SDS011;1496;51.404;7.232;2023-12-07T07:41:18;31.10;;;15.60;;
2972;SDS011;1496;51.404;7.232;2023-12-07T07:43:43;35.37;;;17.67;;
2972;SDS011;1496;51.404;7.232;2023-12-07T07:46:10;35.90;;;15.40;;
2972;SDS011;1496;51.404;7.232;2023-12-07T07:48:35;29.57;;;16.33;;
2972;SDS011;1496;51.404;7.232;2023-12-07T07:51:02;29.67;;;16.57;;
2972;SDS011;1496;51.404;7.232;2023-12-07T07:53:28;29.00;;;16.43;;
2972;SDS011;1496;51.404;7.232;2023-12-07T07:55:54;28.43;;;15.30;;
2972;SDS011;1496;51.404;7.232;2023-12-07T07:58:19;35.40;;;18.50;;
2972;SDS011;1496;51.404;7.232;2023-12-07T08:00:45;44.67;;;17.37;;
2972;SDS011;1496;51.404;7.232;2023-12-07T08:03:11;36.30;;;15.50;;
2972;SDS011;1496;51.404;7.232;2023-12-07T08:05:37;30.47;;;18.20;;
2972;SDS011;1496;51.404;7.232;2023-12-07T08:08:03;34.10;;;18.20;;
2972;SDS011;1496;51.404;7.232;2023-12-07T08:10:29;37.53;;;19.57;;
2972;SDS011;1496;51.404;7.232;2023-12-07T08:12:54;30.77;;;17.10;;
2972;SDS011;1496;51.404;7.232;2023-12-07T08:15:20;29.60;;;16.10;;
2972;SDS011;1496;51.404;7.232;2023-12-07T08:17:47;33.70;;;17.23;;
2972;SDS011;1496;51.404;7.232;2023-12-07T08:20:12;32.60;;;17.13;;
2972;SDS011;1496;51.404;7.232;2023-12-07T08:22:39;31.77;;;17.47;;
2972;SDS011;1496;51.404;7.232;2023-12-07T08:25:08;37.93;;;18.30;;
2972;SDS011;1496;51.404;7.232;2023-12-07T08:27:36;34.63;;;17.53;;
2972;SDS011;1496;51.404;7.232;2023-12-07T08:30:03;30.10;;;17.43;;
2972;SDS011;1496;51.404;7.232;2023-12-07T08:32:29;34.87;;;18.07;;
2972;SDS011;1496;51.404;7.232;2023-12-07T08:34:56;29.53;;;16.33;;
2972;SDS011;1496;51.404;7.232;2023-12-07T08:37:21;31.83;;;16.13;;
2972;SDS011;1496;51.404;7.232;2023-12-07T08:39:47;31.77;;;17.30;;
2972;SDS011;1496;51.404;7.232;2023-12-07T08:42:13;30.30;;;17.03;;
2972;SDS011;1496;51.404;7.232;2023-12-07T08:44:39;33.03;;;16.20;;
2972;SDS011;1496;51.404;7.232;2023-12-07T08:47:04;30.03;;;16.37;;
2972;SDS011;1496;51.404;7.232;2023-12-07T08:49:30;34.83;;;17.30;;
2972;SDS011;1496;51.404;7.232;2023-12-07T08:51:56;30.60;;;15.50;;
2972;SDS011;1496;51.404;7.232;2023-12-07T08:54:22;35.13;;;15.67;;
2972;SDS011;1496;51.404;7.232;2023-12-07T08:56:48;23.10;;;14.80;;
2972;SDS011;1496;51.404;7.232;2023-12-07T08:59:14;23.10;;;13.30;;
2972;SDS011;1496;51.404;7.232;2023-12-07T09:01:39;30.47;;;15.17;;
2972;SDS011;1496;51.404;7.232;2023-12-07T09:04:05;34.57;;;15.13;;
2972;SDS011;1496;51.404;7.232;2023-12-07T09:06:31;22.83;;;12.93;;
2972;SDS011;1496;51.404;7.232;2023-12-07T09:08:56;19.67;;;11.23;;
2972;SDS011;1496;51.404;7.232;2023-12-07T09:11:22;26.63;;;12.47;;
2972;SDS011;1496;51.404;7.232;2023-12-07T09:13:49;24.33;;;13.73;;
2972;SDS011;1496;51.404;7.232;2023-12-07T09:16:15;27.90;;;12.90;;
2972;SDS011;1496;51.404;7.232;2023-12-07T09:18:41;26.07;;;13.33;;
2972;SDS011;1496;51.404;7.232;2023-12-07T09:21:07;23.13;;;12.20;;
2972;SDS011;1496;51.404;7.232;2023-12-07T09:23:34;22.57;;;12.60;;
2972;SDS011;1496;51.404;7.232;2023-12-07T09:26:00;22.60;;;12.17;;
2972;SDS011;1496;51.404;7.232;2023-12-07T09:28:26;21.03;;;11.70;;
2972;SDS011;1496;51.404;7.232;2023-12-07T09:30:51;23.33;;;11.50;;
2972;SDS011;1496;51.404;7.232;2023-12-07T09:33:17;19.67;;;11.77;;
2972;SDS011;1496;51.404;7.232;2023-12-07T09:35:43;24.60;;;13.10;;
2972;SDS011;1496;51.404;7.232;2023-12-07T09:38:09;25.33;;;12.90;;
2972;SDS011;1496;51.404;7.232;2023-12-07T09:40:35;22.63;;;11.30;;
2972;SDS011;1496;51.404;7.232;2023-12-07T09:43:01;19.30;;;11.80;;
2972;SDS011;1496;51.404;7.232;2023-12-07T09:45:26;23.97;;;12.80;;
2972;SDS011;1496;51.404;7.232;2023-12-07T09:47:52;22.80;;;11.87;;
2972;SDS011;1496;51.404;7.232;2023-12-07T09:50:19;18.83;;;11.03;;
2972;SDS011;1496;51.404;7.232;2023-12-07T09:52:47;22.37;;;12.23;;
2972;SDS011;1496;51.404;7.232;2023-12-07T09:55:14;24.00;;;12.53;;
2972;SDS011;1496;51.404;7.232;2023-12-07T09:57:42;22.70;;;11.67;;
2972;SDS011;1496;51.404;7.232;2023-12-07T10:00:08;18.63;;;11.50;;
2972;SDS011;1496;51.404;7.232;2023-12-07T10:02:38;26.90;;;13.17;;
2972;SDS011;1496;51.404;7.232;2023-12-07T10:05:04;22.27;;;12.93;;
2972;SDS011;1496;51.404;7.232;2023-12-07T10:07:32;18.97;;;11.93;;
2972;SDS011;1496;51.404;7.232;2023-12-07T10:10:02;18.37;;;11.20;;
2972;SDS011;1496;51.404;7.232;2023-12-07T10:12:32;21.23;;;11.73;;
2972;SDS011;1496;51.404;7.232;2023-12-07T10:15:09;19.20;;;11.73;;
2972;SDS011;1496;51.404;7.232;2023-12-07T10:17:57;24.03;;;13.57;;
2972;SDS011;1496;51.404;7.232;2023-12-07T10:20:28;20.80;;;11.90;;
2972;SDS011;1496;51.404;7.232;2023-12-07T10:25:30;18.80;;;11.70;;
2972;SDS011;1496;51.404;7.232;2023-12-07T10:27:57;20.77;;;10.50;;
2972;SDS011;1496;51.404;7.232;2023-12-07T10:30:23;18.80;;;12.23;;
2972;SDS011;1496;51.404;7.232;2023-12-07T10:32:50;16.43;;;9.80;;
2972;SDS011;1496;51.404;7.232;2023-12-07T10:35:17;22.10;;;11.33;;
2972;SDS011;1496;51.404;7.232;2023-12-07T10:37:45;17.63;;;9.90;;
2972;SDS011;1496;51.404;7.232;2023-12-07T10:40:12;19.77;;;11.17;;
2972;SDS011;1496;51.404;7.232;2023-12-07T10:42:38;13.87;;;9.50;;
2972;SDS011;1496;51.404;7.232;2023-12-07T10:45:07;21.43;;;9.07;;
2972;SDS011;1496;51.404;7.232;2023-12-07T10:47:37;14.57;;;9.00;;
2972;SDS011;1496;51.404;7.232;2023-12-07T10:50:08;15.63;;;9.13;;
2972;SDS011;1496;51.404;7.232;2023-12-07T10:53:11;14.27;;;9.50;;
2972;SDS011;1496;51.404;7.232;2023-12-07T10:55:52;15.47;;;9.70;;
2972;SDS011;1496;51.404;7.232;2023-12-07T10:58:22;15.30;;;8.93;;
2972;SDS011;1496;51.404;7.232;2023-12-07T11:00:50;19.53;;;9.27;;
2972;SDS011;1496;51.404;7.232;2023-12-07T11:03:17;15.50;;;8.80;;
2972;SDS011;1496;51.404;7.232;2023-12-07T11:05:46;13.70;;;7.40;;
2972;SDS011;1496;51.404;7.232;2023-12-07T11:08:17;15.60;;;8.93;;
2972;SDS011;1496;51.404;7.232;2023-12-07T11:11:04;15.33;;;9.27;;
2972;SDS011;1496;51.404;7.232;2023-12-07T11:14:07;14.53;;;8.30;;
2972;SDS011;1496;51.404;7.232;2023-12-07T11:16:32;18.13;;;10.00;;
2972;SDS011;1496;51.404;7.232;2023-12-07T11:19:02;17.07;;;9.20;;
2972;SDS011;1496;51.404;7.232;2023-12-07T11:21:28;16.87;;;10.03;;
2972;SDS011;1496;51.404;7.232;2023-12-07T11:24:00;18.00;;;9.00;;
2972;SDS011;1496;51.404;7.232;2023-12-07T11:26:29;19.40;;;10.60;;
2972;SDS011;1496;51.404;7.232;2023-12-07T11:28:55;20.13;;;9.27;;
2972;SDS011;1496;51.404;7.232;2023-12-07T11:31:21;22.03;;;9.03;;
2972;SDS011;1496;51.404;7.232;2023-12-07T11:33:47;20.83;;;9.67;;
2972;SDS011;1496;51.404;7.232;2023-12-07T11:36:13;21.57;;;8.97;;
2972;SDS011;1496;51.404;7.232;2023-12-07T11:39:15;22.50;;;10.47;;
2972;SDS011;1496;51.404;7.232;2023-12-07T11:41:35;21.40;;;9.93;;
2972;SDS011;1496;51.404;7.232;2023-12-07T11:44:08;26.13;;;9.30;;
2972;SDS011;1496;51.404;7.232;2023-12-07T11:46:35;24.40;;;8.70;;
2972;SDS011;1496;51.404;7.232;2023-12-07T11:49:01;26.73;;;9.73;;
2972;SDS011;1496;51.404;7.232;2023-12-07T11:51:29;28.43;;;9.10;;
2972;SDS011;1496;51.404;7.232;2023-12-07T11:53:55;30.70;;;11.30;;
2972;SDS011;1496;51.404;7.232;2023-12-07T11:56:21;27.90;;;9.13;;
2972;SDS011;1496;51.404;7.232;2023-12-07T11:58:47;27.70;;;9.70;;
2972;SDS011;1496;51.404;7.232;2023-12-07T12:01:13;29.60;;;9.20;;
2972;SDS011;1496;51.404;7.232;2023-12-07T12:03:40;27.53;;;9.10;;
2972;SDS011;1496;51.404;7.232;2023-12-07T12:06:06;28.57;;;8.33;;
2972;SDS011;1496;51.404;7.232;2023-12-07T12:08:35;29.83;;;9.93;;
2972;SDS011;1496;51.404;7.232;2023-12-07T12:11:00;28.20;;;10.00;;
2972;SDS011;1496;51.404;7.232;2023-12-07T12:13:30;26.30;;;7.90;;
2972;SDS011;1496;51.404;7.232;2023-12-07T12:16:01;28.60;;;8.33;;
2972;SDS011;1496;51.404;7.232;2023-12-07T12:18:27;25.77;;;8.43;;
2972;SDS011;1496;51.404;7.232;2023-12-07T12:20:53;26.50;;;8.73;;
2972;SDS011;1496;51.404;7.232;2023-12-07T12:23:19;28.97;;;10.47;;
2972;SDS011;1496;51.404;7.232;2023-12-07T12:25:45;31.87;;;9.57;;
2972;SDS011;1496;51.404;7.232;2023-12-07T12:28:13;29.50;;;9.17;;
2972;SDS011;1496;51.404;7.232;2023-12-07T12:30:41;29.37;;;8.33;;
2972;SDS011;1496;51.404;7.232;2023-12-07T12:33:07;33.47;;;9.00;;
2972;SDS011;1496;51.404;7.232;2023-12-07T12:35:32;29.60;;;8.57;;
2972;SDS011;1496;51.404;7.232;2023-12-07T12:37:58;30.53;;;8.83;;
2972;SDS011;1496;51.404;7.232;2023-12-07T12:40:26;26.67;;;8.43;;
2972;SDS011;1496;51.404;7.232;2023-12-07T12:42:54;31.00;;;8.13;;
2972;SDS011;1496;51.404;7.232;2023-12-07T12:45:19;26.53;;;8.10;;
2972;SDS011;1496;51.404;7.232;2023-12-07T12:47:46;26.87;;;8.17;;
2972;SDS011;1496;51.404;7.232;2023-12-07T12:50:13;27.73;;;8.97;;
2972;SDS011;1496;51.404;7.232;2023-12-07T12:52:59;30.53;;;8.90;;
2972;SDS011;1496;51.404;7.232;2023-12-07T12:55:25;26.07;;;7.40;;
2972;SDS011;1496;51.404;7.232;2023-12-07T12:57:51;32.10;;;8.80;;
2972;SDS011;1496;51.404;7.232;2023-12-07T13:00:17;27.00;;;8.20;;
2972;SDS011;1496;51.404;7.232;2023-12-07T13:02:43;26.83;;;8.80;;
2972;SDS011;1496;51.404;7.232;2023-12-07T13:05:08;29.03;;;9.87;;
2972;SDS011;1496;51.404;7.232;2023-12-07T13:07:34;25.80;;;7.17;;
2972;SDS011;1496;51.404;7.232;2023-12-07T13:10:00;26.90;;;8.87;;
2972;SDS011;1496;51.404;7.232;2023-12-07T13:12:26;29.33;;;9.67;;
2972;SDS011;1496;51.404;7.232;2023-12-07T13:14:53;25.17;;;7.20;;
2972;SDS011;1496;51.404;7.232;2023-12-07T13:17:19;26.27;;;7.53;;
2972;SDS011;1496;51.404;7.232;2023-12-07T13:19:45;25.17;;;7.30;;
2972;SDS011;1496;51.404;7.232;2023-12-07T13:22:11;22.47;;;7.23;;
2972;SDS011;1496;51.404;7.232;2023-12-07T13:24:36;19.20;;;7.23;;
2972;SDS011;1496;51.404;7.232;2023-12-07T13:27:03;16.73;;;7.50;;
2972;SDS011;1496;51.404;7.232;2023-12-07T13:29:29;15.90;;;7.40;;
2972;SDS011;1496;51.404;7.232;2023-12-07T13:31:54;14.73;;;7.93;;
2972;SDS011;1496;51.404;7.232;2023-12-07T13:34:20;14.50;;;7.90;;
2972;SDS011;1496;51.404;7.232;2023-12-07T13:36:46;17.37;;;7.57;;
2972;SDS011;1496;51.404;7.232;2023-12-07T13:39:16;14.10;;;7.17;;
2972;SDS011;1496;51.404;7.232;2023-12-07T13:41:45;13.70;;;7.00;;
2972;SDS011;1496;51.404;7.232;2023-12-07T13:44:12;11.73;;;6.77;;
2972;SDS011;1496;51.404;7.232;2023-12-07T13:46:38;18.13;;;8.10;;
2972;SDS011;1496;51.404;7.232;2023-12-07T13:49:04;12.83;;;6.97;;
2972;SDS011;1496;51.404;7.232;2023-12-07T13:51:29;13.77;;;8.00;;
2972;SDS011;1496;51.404;7.232;2023-12-07T13:53:55;15.03;;;6.70;;
2972;SDS011;1496;51.404;7.232;2023-12-07T13:56:21;12.90;;;7.30;;
2972;SDS011;1496;51.404;7.232;2023-12-07T13:58:49;16.37;;;7.20;;
2972;SDS011;1496;51.404;7.232;2023-12-07T14:01:16;13.67;;;8.10;;
2972;SDS011;1496;51.404;7.232;2023-12-07T14:03:44;15.30;;;7.27;;
2972;SDS011;1496;51.404;7.232;2023-12-07T14:06:10;18.33;;;8.00;;
2972;SDS011;1496;51.404;7.232;2023-12-07T14:08:37;15.93;;;8.37;;
2972;SDS011;1496;51.404;7.232;2023-12-07T14:11:03;13.50;;;7.50;;
2972;SDS011;1496;51.404;7.232;2023-12-07T14:13:29;14.47;;;7.70;;
2972;SDS011;1496;51.404;7.232;2023-12-07T14:15:54;13.10;;;7.77;;
2972;SDS011;1496;51.404;7.232;2023-12-07T14:18:20;13.40;;;7.13;;
2972;SDS011;1496;51.404;7.232;2023-12-07T14:20:46;13.50;;;7.60;;
2972;SDS011;1496;51.404;7.232;2023-12-07T14:23:11;11.27;;;7.00;;
2972;SDS011;1496;51.404;7.232;2023-12-07T14:25:37;11.87;;;7.57;;
2972;SDS011;1496;51.404;7.232;2023-12-07T14:28:05;10.40;;;6.33;;
2972;SDS011;1496;51.404;7.232;2023-12-07T14:30:30;11.83;;;7.63;;
2972;SDS011;1496;51.404;7.232;2023-12-07T14:32:56;12.70;;;7.63;;
2972;SDS011;1496;51.404;7.232;2023-12-07T14:35:22;11.60;;;7.30;;
2972;SDS011;1496;51.404;7.232;2023-12-07T14:37:47;11.20;;;7.47;;
2972;SDS011;1496;51.404;7.232;2023-12-07T14:40:16;17.10;;;6.90;;
2972;SDS011;1496;51.404;7.232;2023-12-07T14:42:43;12.43;;;7.13;;
2972;SDS011;1496;51.404;7.232;2023-12-07T14:45:10;13.10;;;8.10;;
2972;SDS011;1496;51.404;7.232;2023-12-07T14:47:36;17.30;;;7.47;;
2972;SDS011;1496;51.404;7.232;2023-12-07T14:50:02;16.53;;;8.20;;
2972;SDS011;1496;51.404;7.232;2023-12-07T14:52:28;18.10;;;8.80;;
2972;SDS011;1496;51.404;7.232;2023-12-07T14:54:54;17.57;;;7.43;;
2972;SDS011;1496;51.404;7.232;2023-12-07T14:57:19;15.63;;;7.30;;
2972;SDS011;1496;51.404;7.232;2023-12-07T14:59:45;15.43;;;7.50;;